Time;durP1;ratioP1;P1;durP2;ratioP2;P2;SDS_P1;SDS_P2;PMS_P1;PMS_P2;Temp;Humidity;BMP_temperature;BMP_pressure;BME280_temperature;BME280_humidity;BME280_pressure;Samples;Min_cycle;Max_cycle;Signal;HPM_P1;HPM_P2
2021/08/17 00:01:52;;;;;;;13.73;3.38;;;;;;;;;;5055312;28;20053;-94
2021/08/17 00:04:20;;;;;;;15.32;3.38;;;;;;;;;;5053141;28;20067;-93
2021/08/17 00:06:47;;;;;;;10.88;2.47;;;;;;;;;;5049553;28;20561;-95
2021/08/17 00:09:15;;;;;;;10.25;2.90;;;;;;;;;;5057575;28;20062;-92
2021/08/17 00:11:42;;;;;;;6.95;1.65;;;;;;;;;;5052433;28;20052;-93
2021/08/17 00:14:11;;;;;;;13.10;2.70;;;;;;;;;;5042550;28;20554;-94
2021/08/17 00:16:37;;;;;;;15.68;2.97;;;;;;;;;;5040337;28;20058;-95
2021/08/17 00:19:04;;;;;;;9.95;2.72;;;;;;;;;;5060249;28;20060;-94
2021/08/17 00:21:30;;;;;;;8.93;3.28;;;;;;;;;;5078895;28;20049;-94
2021/08/17 00:23:57;;;;;;;8.80;2.17;;;;;;;;;;5073729;28;20052;-93
2021/08/17 00:26:25;;;;;;;9.23;2.78;;;;;;;;;;5079891;28;20076;-93
2021/08/17 00:28:52;;;;;;;6.88;2.30;;;;;;;;;;5031341;28;20131;-94
2021/08/17 00:31:18;;;;;;;11.48;2.47;;;;;;;;;;5027652;28;20044;-94
2021/08/17 00:33:46;;;;;;;10.65;3.08;;;;;;;;;;5039253;28;20052;-91
2021/08/17 00:36:20;;;;;;;12.47;2.70;;;;;;;;;;5043446;28;20052;-92
2021/08/17 00:38:49;;;;;;;9.65;2.65;;;;;;;;;;5050921;28;20337;-96
2021/08/17 00:41:17;;;;;;;14.38;3.17;;;;;;;;;;5038586;28;20066;-94
2021/08/17 00:43:44;;;;;;;10.55;3.28;;;;;;;;;;5073784;28;20047;-93
2021/08/17 00:46:13;;;;;;;10.20;3.00;;;;;;;;;;5034301;28;20428;-95
2021/08/17 00:48:40;;;;;;;11.68;3.28;;;;;;;;;;5075175;28;20048;-94
2021/08/17 00:51:08;;;;;;;7.95;2.30;;;;;;;;;;5079317;28;20056;-91
2021/08/17 00:53:35;;;;;;;6.50;2.53;;;;;;;;;;5049997;28;20057;-93
2021/08/17 00:56:02;;;;;;;11.23;2.75;;;;;;;;;;5058696;28;20047;-93
2021/08/17 00:58:28;;;;;;;9.75;2.10;;;;;;;;;;5041711;28;20070;-95
2021/08/17 01:00:57;;;;;;;8.07;2.65;;;;;;;;;;5042601;28;20044;-92
2021/08/17 01:03:23;;;;;;;12.30;2.47;;;;;;;;;;5070493;28;20051;-93
2021/08/17 01:05:52;;;;;;;8.38;2.17;;;;;;;;;;5061645;28;20059;-93
2021/08/17 01:08:19;;;;;;;9.80;2.83;;;;;;;;;;5033887;28;20049;-94
2021/08/17 01:10:45;;;;;;;10.98;2.75;;;;;;;;;;5026696;28;20483;-93
2021/08/17 01:13:11;;;;;;;9.48;2.55;;;;;;;;;;5053095;28;20066;-93
2021/08/17 01:15:39;;;;;;;15.15;3.10;;;;;;;;;;5055793;28;20543;-93
2021/08/17 01:18:10;;;;;;;10.18;2.92;;;;;;;;;;5055815;28;20147;-93
2021/08/17 01:20:37;;;;;;;15.48;3.35;;;;;;;;;;5070566;28;20142;-93
2021/08/17 01:23:06;;;;;;;9.63;2.78;;;;;;;;;;5011757;28;20452;-94
2021/08/17 01:25:35;;;;;;;12.07;2.70;;;;;;;;;;5013794;28;20567;-92
2021/08/17 01:28:04;;;;;;;11.93;2.97;;;;;;;;;;5062694;28;20463;-93
2021/08/17 01:30:30;;;;;;;10.85;2.38;;;;;;;;;;5045630;28;20064;-92
2021/08/17 01:32:59;;;;;;;9.57;2.88;;;;;;;;;;5042466;28;20047;-95
2021/08/17 01:35:28;;;;;;;12.20;2.60;;;;;;;;;;5066467;28;20053;-93
2021/08/17 01:37:55;;;;;;;8.73;2.80;;;;;;;;;;5040580;28;20055;-96
2021/08/17 01:40:22;;;;;;;11.07;2.65;;;;;;;;;;5060643;28;20071;-93
2021/08/17 01:42:51;;;;;;;9.07;2.72;;;;;;;;;;5068227;28;20102;-94
2021/08/17 01:45:18;;;;;;;8.20;2.35;;;;;;;;;;5043456;28;20138;-94
2021/08/17 01:47:46;;;;;;;12.38;2.63;;;;;;;;;;5054435;28;20106;-92
2021/08/17 01:50:13;;;;;;;9.32;2.63;;;;;;;;;;5047857;28;20493;-92
2021/08/17 01:52:39;;;;;;;11.50;2.80;;;;;;;;;;5038725;28;20051;-93
2021/08/17 01:55:07;;;;;;;9.02;2.40;;;;;;;;;;5074859;28;20147;-95
2021/08/17 01:57:35;;;;;;;9.25;2.53;;;;;;;;;;5043574;28;20126;-95
2021/08/17 02:00:03;;;;;;;8.32;2.60;;;;;;;;;;5037488;28;20047;-93
2021/08/17 02:02:30;;;;;;;4.85;1.67;;;;;;;;;;5059075;28;20056;-95
2021/08/17 02:04:58;;;;;;;9.80;2.42;;;;;;;;;;5046706;28;20056;-93
2021/08/17 02:07:27;;;;;;;13.43;2.63;;;;;;;;;;5038866;28;20044;-94
2021/08/17 02:09:53;;;;;;;11.75;2.50;;;;;;;;;;5052644;28;20044;-93
2021/08/17 02:12:22;;;;;;;8.13;2.00;;;;;;;;;;5064436;28;20052;-94
2021/08/17 02:14:57;;;;;;;9.80;2.40;;;;;;;;;;5049396;28;20047;-93
2021/08/17 02:17:26;;;;;;;11.68;2.70;;;;;;;;;;5052428;28;20106;-92
2021/08/17 02:19:52;;;;;;;12.45;2.47;;;;;;;;;;5031905;28;20163;-95
2021/08/17 02:22:24;;;;;;;4.88;1.75;;;;;;;;;;5055737;28;20047;-95
2021/08/17 02:24:50;;;;;;;10.07;1.98;;;;;;;;;;5086080;28;20655;-93
2021/08/17 02:27:33;;;;;;;11.10;2.00;;;;;;;;;;5076571;28;20436;-96
2021/08/17 02:30:00;;;;;;;13.85;2.25;;;;;;;;;;5039948;28;20089;-93
2021/08/17 02:32:26;;;;;;;10.02;2.75;;;;;;;;;;5045817;28;20428;-94
2021/08/17 02:34:52;;;;;;;9.45;1.90;;;;;;;;;;5061677;28;20044;-92
2021/08/17 02:37:19;;;;;;;4.18;1.73;;;;;;;;;;5036602;28;20508;-93
2021/08/17 02:39:49;;;;;;;7.68;2.00;;;;;;;;;;5064603;28;20052;-94
2021/08/17 02:42:16;;;;;;;9.35;2.33;;;;;;;;;;5078511;28;20052;-93
2021/08/17 02:44:43;;;;;;;6.45;1.90;;;;;;;;;;5063084;28;20420;-94
2021/08/17 02:47:09;;;;;;;7.63;1.70;;;;;;;;;;5060029;28;20048;-94
2021/08/17 02:49:42;;;;;;;10.63;2.28;;;;;;;;;;5023451;28;20048;-95
2021/08/17 02:52:09;;;;;;;5.85;1.60;;;;;;;;;;5081051;28;20095;-94
2021/08/17 02:54:36;;;;;;;8.55;2.17;;;;;;;;;;5082034;28;20051;-93
2021/08/17 02:57:03;;;;;;;12.52;2.30;;;;;;;;;;5068807;28;20132;-95
2021/08/17 02:59:34;;;;;;;7.53;2.42;;;;;;;;;;5043973;28;20042;-94
2021/08/17 03:02:07;;;;;;;9.07;1.80;;;;;;;;;;5059107;28;20051;-93
2021/08/17 03:04:43;;;;;;;8.85;2.10;;;;;;;;;;5054210;28;20076;-91
2021/08/17 03:07:09;;;;;;;7.13;1.75;;;;;;;;;;5041778;28;20854;-94
2021/08/17 03:09:38;;;;;;;13.23;2.20;;;;;;;;;;5077092;28;20143;-92
2021/08/17 03:12:04;;;;;;;8.52;2.33;;;;;;;;;;5034420;28;20105;-93
2021/08/17 03:14:30;;;;;;;6.70;1.98;;;;;;;;;;5080462;28;20089;-94
2021/08/17 03:16:57;;;;;;;11.70;2.25;;;;;;;;;;5036467;28;20067;-93
2021/08/17 03:19:23;;;;;;;9.32;2.30;;;;;;;;;;5074531;28;20079;-93
2021/08/17 03:21:49;;;;;;;10.02;2.45;;;;;;;;;;5047174;28;20059;-94
2021/08/17 03:24:16;;;;;;;15.30;2.50;;;;;;;;;;5051152;28;20048;-94
2021/08/17 03:26:42;;;;;;;7.80;1.90;;;;;;;;;;5072864;28;20056;-95
2021/08/17 03:29:08;;;;;;;7.88;2.10;;;;;;;;;;5061123;28;20116;-94
2021/08/17 03:31:35;;;;;;;9.70;2.03;;;;;;;;;;5071117;28;20063;-93
2021/08/17 03:34:01;;;;;;;9.88;2.42;;;;;;;;;;5059463;28;20078;-94
2021/08/17 03:36:27;;;;;;;10.60;1.85;;;;;;;;;;5086753;28;20078;-94
2021/08/17 03:38:54;;;;;;;9.55;1.77;;;;;;;;;;5047018;28;20045;-95
2021/08/17 03:41:23;;;;;;;8.18;2.20;;;;;;;;;;5062504;28;20048;-94
2021/08/17 03:43:49;;;;;;;7.25;1.90;;;;;;;;;;5022706;28;20048;-95
2021/08/17 03:46:15;;;;;;;6.68;2.20;;;;;;;;;;5054275;28;20047;-93
2021/08/17 03:48:49;;;;;;;13.27;2.45;;;;;;;;;;5077429;28;20044;-93
2021/08/17 03:51:16;;;;;;;10.43;2.30;;;;;;;;;;5062414;28;20051;-94
2021/08/17 03:53:45;;;;;;;8.45;2.50;;;;;;;;;;5054345;28;20045;-94
2021/08/17 03:56:11;;;;;;;8.65;2.10;;;;;;;;;;5008642;28;20146;-96
2021/08/17 03:58:37;;;;;;;12.07;2.45;;;;;;;;;;5061291;28;20431;-94
2021/08/17 04:01:04;;;;;;;10.43;2.50;;;;;;;;;;5056177;28;20060;-94
2021/08/17 04:03:30;;;;;;;6.57;1.90;;;;;;;;;;5039681;28;20052;-94
2021/08/17 04:06:01;;;;;;;11.18;2.92;;;;;;;;;;5060644;28;20407;-93
2021/08/17 04:08:27;;;;;;;11.50;2.72;;;;;;;;;;5051184;28;20113;-93
2021/08/17 04:10:57;;;;;;;11.50;2.90;;;;;;;;;;5019475;28;20110;-95
2021/08/17 04:13:23;;;;;;;10.02;2.50;;;;;;;;;;5036672;28;20059;-93
2021/08/17 04:15:49;;;;;;;11.50;3.13;;;;;;;;;;5058077;28;20507;-94
2021/08/17 04:18:16;;;;;;;7.75;2.58;;;;;;;;;;5038014;28;20049;-94
2021/08/17 04:20:42;;;;;;;10.00;2.10;;;;;;;;;;5048417;28;20052;-94
2021/08/17 04:23:09;;;;;;;12.57;2.85;;;;;;;;;;5023274;28;20132;-94
2021/08/17 04:25:35;;;;;;;9.98;2.95;;;;;;;;;;5048181;28;20385;-95
2021/08/17 04:28:07;;;;;;;12.10;3.33;;;;;;;;;;5042398;28;20162;-93
2021/08/17 04:30:33;;;;;;;9.10;2.80;;;;;;;;;;5043387;28;20131;-94
2021/08/17 04:33:00;;;;;;;10.02;3.58;;;;;;;;;;5035770;28;20067;-93
2021/08/17 04:35:29;;;;;;;12.15;3.70;;;;;;;;;;5048324;28;20056;-94
2021/08/17 04:37:56;;;;;;;14.38;3.80;;;;;;;;;;5043080;28;20052;-93
2021/08/17 04:40:22;;;;;;;10.38;3.63;;;;;;;;;;5060570;28;20040;-94
2021/08/17 04:42:50;;;;;;;10.63;2.90;;;;;;;;;;5050282;28;20060;-95
2021/08/17 04:45:17;;;;;;;11.48;3.28;;;;;;;;;;5060209;28;20048;-93
2021/08/17 04:47:46;;;;;;;12.13;3.65;;;;;;;;;;5064747;28;20461;-93
2021/08/17 04:50:12;;;;;;;16.42;4.20;;;;;;;;;;5071232;28;20147;-94
2021/08/17 04:52:43;;;;;;;12.35;3.67;;;;;;;;;;5046076;28;20052;-94
2021/08/17 04:55:10;;;;;;;10.23;3.75;;;;;;;;;;5069039;28;21882;-94
2021/08/17 04:57:57;;;;;;;9.40;3.45;;;;;;;;;;5041998;28;20063;-94
2021/08/17 05:00:28;;;;;;;14.90;3.83;;;;;;;;;;5025355;28;20593;-92
2021/08/17 05:02:55;;;;;;;12.32;3.97;;;;;;;;;;5030838;28;20056;-94
2021/08/17 05:05:23;;;;;;;13.75;3.92;;;;;;;;;;5062868;28;20086;-94
2021/08/17 05:07:51;;;;;;;14.85;4.00;;;;;;;;;;5054786;28;20047;-94
2021/08/17 05:10:23;;;;;;;16.60;4.57;;;;;;;;;;5064066;28;20557;-93
2021/08/17 05:12:52;;;;;;;11.80;4.45;;;;;;;;;;5042596;28;20044;-94
2021/08/17 05:15:21;;;;;;;9.35;3.60;;;;;;;;;;5072172;28;20160;-93
2021/08/17 05:17:47;;;;;;;9.38;3.35;;;;;;;;;;5066477;28;20078;-94
2021/08/17 05:20:14;;;;;;;14.70;4.65;;;;;;;;;;5068752;28;20437;-93
2021/08/17 05:22:40;;;;;;;10.25;4.00;;;;;;;;;;5047502;28;20056;-95
2021/08/17 05:25:06;;;;;;;12.88;4.50;;;;;;;;;;5028775;28;20055;-95
2021/08/17 05:27:50;;;;;;;13.70;4.05;;;;;;;;;;5033467;28;20059;-94
2021/08/17 05:30:19;;;;;;;11.60;4.10;;;;;;;;;;5045494;28;20052;-94
2021/08/17 05:32:45;;;;;;;13.27;3.92;;;;;;;;;;5034746;28;20127;-93
2021/08/17 05:35:13;;;;;;;12.55;4.55;;;;;;;;;;5046542;28;20112;-94
2021/08/17 05:37:40;;;;;;;12.05;4.60;;;;;;;;;;5061472;28;20079;-94
2021/08/17 05:40:07;;;;;;;8.98;3.63;;;;;;;;;;5060196;28;20083;-93
2021/08/17 05:42:33;;;;;;;9.57;4.15;;;;;;;;;;5019557;28;20050;-95
2021/08/17 05:45:03;;;;;;;16.13;4.32;;;;;;;;;;5078384;28;20094;-93
2021/08/17 05:47:32;;;;;;;15.32;4.90;;;;;;;;;;5070753;28;20063;-95
2021/08/17 05:49:58;;;;;;;10.73;3.85;;;;;;;;;;5036233;28;20195;-95
2021/08/17 05:52:25;;;;;;;13.15;3.95;;;;;;;;;;5027475;28;20044;-94
2021/08/17 05:54:51;;;;;;;11.15;3.28;;;;;;;;;;5049862;28;20516;-94
2021/08/17 05:57:20;;;;;;;11.57;3.78;;;;;;;;;;5043329;28;20105;-95
2021/08/17 05:59:47;;;;;;;10.63;3.70;;;;;;;;;;5041940;28;20040;-94
2021/08/17 06:02:14;;;;;;;8.10;4.00;;;;;;;;;;5076415;28;20576;-96
2021/08/17 06:04:40;;;;;;;8.50;3.85;;;;;;;;;;5049469;28;20059;-94
2021/08/17 06:07:12;;;;;;;5.40;2.42;;;;;;;;;;5026032;28;20059;-94
2021/08/17 06:09:51;;;;;;;9.63;3.53;;;;;;;;;;4990705;28;20046;-94
2021/08/17 06:12:19;;;;;;;10.30;3.45;;;;;;;;;;5052416;28;20056;-93
2021/08/17 06:14:50;;;;;;;6.97;3.05;;;;;;;;;;5068670;28;20127;-93
2021/08/17 06:17:16;;;;;;;6.82;2.55;;;;;;;;;;5042452;28;20097;-94
2021/08/17 06:19:42;;;;;;;10.68;3.75;;;;;;;;;;5055919;28;20055;-93
2021/08/17 06:22:09;;;;;;;4.50;2.38;;;;;;;;;;5068374;28;20044;-95
2021/08/17 06:24:35;;;;;;;7.95;3.50;;;;;;;;;;5049401;28;20056;-94
2021/08/17 06:27:01;;;;;;;6.60;3.17;;;;;;;;;;5049026;28;20110;-95
2021/08/17 06:29:28;;;;;;;7.97;3.90;;;;;;;;;;5047559;28;20148;-94
2021/08/17 06:31:54;;;;;;;7.00;3.20;;;;;;;;;;5056491;28;20056;-96
2021/08/17 06:34:23;;;;;;;8.70;4.28;;;;;;;;;;5066224;28;20052;-95
2021/08/17 06:36:51;;;;;;;10.15;3.92;;;;;;;;;;5060946;28;20052;-95
2021/08/17 06:39:20;;;;;;;6.47;3.10;;;;;;;;;;5051826;28;20118;-95
2021/08/17 06:41:47;;;;;;;9.18;3.72;;;;;;;;;;5067807;28;20052;-95
2021/08/17 06:44:14;;;;;;;9.43;4.10;;;;;;;;;;5087254;28;20142;-95
2021/08/17 06:46:41;;;;;;;6.90;3.50;;;;;;;;;;5094270;28;20485;-96
2021/08/17 06:49:10;;;;;;;8.60;3.75;;;;;;;;;;5045606;28;20135;-96
2021/08/17 06:51:39;;;;;;;10.10;3.63;;;;;;;;;;5064483;28;20051;-94
2021/08/17 06:54:12;;;;;;;8.05;4.28;;;;;;;;;;5061458;28;20055;-95
2021/08/17 06:56:45;;;;;;;8.02;4.03;;;;;;;;;;5083146;28;20092;-95
2021/08/17 06:59:12;;;;;;;12.00;4.43;;;;;;;;;;5071164;28;20044;-95
2021/08/17 07:01:38;;;;;;;12.93;4.15;;;;;;;;;;5095724;28;20135;-94
2021/08/17 07:04:04;;;;;;;8.20;3.53;;;;;;;;;;5068192;28;20056;-96
2021/08/17 07:06:34;;;;;;;8.95;4.50;;;;;;;;;;5086549;28;20105;-95
2021/08/17 07:09:02;;;;;;;12.23;3.80;;;;;;;;;;5056270;28;20093;-96
2021/08/17 07:11:30;;;;;;;8.82;3.95;;;;;;;;;;5061130;28;20110;-93
2021/08/17 07:13:57;;;;;;;13.02;4.50;;;;;;;;;;5074988;28;20044;-96
2021/08/17 07:16:23;;;;;;;10.10;3.80;;;;;;;;;;5077959;28;20048;-95
2021/08/17 07:18:50;;;;;;;11.45;4.45;;;;;;;;;;5064005;28;20508;-95
2021/08/17 07:21:21;;;;;;;7.90;3.88;;;;;;;;;;5074395;28;20138;-94
2021/08/17 07:23:48;;;;;;;9.10;3.88;;;;;;;;;;5055753;28;20503;-96
2021/08/17 07:26:18;;;;;;;11.48;4.25;;;;;;;;;;5060299;28;20052;-94
2021/08/17 07:28:48;;;;;;;11.35;4.45;;;;;;;;;;5056815;28;20068;-96
2021/08/17 07:31:14;;;;;;;8.82;4.45;;;;;;;;;;5067256;28;20048;-93
2021/08/17 07:33:43;;;;;;;11.63;4.45;;;;;;;;;;5057233;28;20072;-93
2021/08/17 07:36:13;;;;;;;10.02;4.65;;;;;;;;;;5059747;28;20089;-96
2021/08/17 07:38:44;;;;;;;13.75;4.57;;;;;;;;;;5081439;28;20040;-93
2021/08/17 07:41:14;;;;;;;8.63;3.83;;;;;;;;;;5052193;28;20091;-96
2021/08/17 07:43:53;;;;;;;12.55;5.07;;;;;;;;;;4941920;28;20050;-96
2021/08/17 07:46:34;;;;;;;12.37;4.70;;;;;;;;;;4907742;28;20097;-96
2021/08/17 07:49:12;;;;;;;9.25;4.38;;;;;;;;;;4769302;29;3113530;-96
2021/08/17 07:52:16;;;;;;;11.00;4.57;;;;;;;;;;5023531;27;20420;-95
2021/08/17 07:55:06;;;;;;;10.77;5.47;;;;;;;;;;4965404;28;20515;-95
2021/08/17 07:57:54;;;;;;;13.13;4.75;;;;;;;;;;4919899;28;20127;-96
2021/08/17 08:00:31;;;;;;;11.13;5.22;;;;;;;;;;4919470;28;20047;-94
2021/08/17 08:03:47;;;;;;;;;;;;;;;;;;;;;
2021/08/17 08:06:16;;;;;;;12.60;5.30;;;;;;;;;;4884894;28;20779;-90
2021/08/17 08:08:42;;;;;;;14.55;5.38;;;;;;;;;;4964267;28;20054;-93
2021/08/17 08:11:09;;;;;;;12.63;6.00;;;;;;;;;;5033003;28;20049;-95
2021/08/17 08:13:35;;;;;;;13.85;6.40;;;;;;;;;;5050661;28;20489;-93
2021/08/17 08:16:01;;;;;;;12.68;6.57;;;;;;;;;;5044151;28;20072;-94
2021/08/17 08:18:30;;;;;;;10.98;6.00;;;;;;;;;;5052998;28;20057;-93
2021/08/17 08:20:56;;;;;;;14.13;6.22;;;;;;;;;;5035943;28;20049;-96
2021/08/17 08:23:22;;;;;;;12.55;6.75;;;;;;;;;;5040956;28;20051;-95
2021/08/17 08:25:49;;;;;;;15.48;7.20;;;;;;;;;;5027342;28;20511;-94
2021/08/17 08:28:15;;;;;;;15.63;7.03;;;;;;;;;;5027753;28;20057;-94
2021/08/17 08:30:41;;;;;;;12.18;6.07;;;;;;;;;;5029481;28;20061;-94
2021/08/17 08:33:08;;;;;;;13.55;6.75;;;;;;;;;;5037216;28;20057;-94
2021/08/17 08:35:37;;;;;;;14.25;6.07;;;;;;;;;;5033466;28;20057;-94
2021/08/17 08:38:03;;;;;;;17.40;7.78;;;;;;;;;;5038574;28;20069;-92
2021/08/17 08:40:30;;;;;;;13.68;6.95;;;;;;;;;;5051060;28;20134;-93
2021/08/17 08:42:56;;;;;;;14.00;6.80;;;;;;;;;;5035656;28;20056;-93
2021/08/17 08:45:25;;;;;;;12.43;6.45;;;;;;;;;;5034881;28;20056;-93
2021/08/17 08:47:52;;;;;;;11.57;6.20;;;;;;;;;;5033046;28;20051;-91
2021/08/17 08:50:18;;;;;;;10.80;6.63;;;;;;;;;;5047754;28;20062;-92
2021/08/17 08:52:45;;;;;;;16.75;7.30;;;;;;;;;;5027660;28;20090;-91
2021/08/17 08:55:12;;;;;;;16.65;6.15;;;;;;;;;;5026066;28;20048;-93
2021/08/17 08:57:38;;;;;;;17.50;7.55;;;;;;;;;;5025793;28;20408;-93
2021/08/17 09:00:06;;;;;;;19.08;8.43;;;;;;;;;;5026627;28;20531;-93
2021/08/17 09:02:34;;;;;;;14.55;6.28;;;;;;;;;;5012045;28;20397;-92
2021/08/17 09:05:02;;;;;;;13.10;6.97;;;;;;;;;;5019692;28;20123;-93
2021/08/17 09:07:46;;;;;;;12.85;7.40;;;;;;;;;;5054640;28;20076;-92
2021/08/17 09:10:16;;;;;;;15.07;7.57;;;;;;;;;;5017624;28;20063;-93
2021/08/17 09:12:48;;;;;;;15.35;7.68;;;;;;;;;;5041689;28;20074;-95
2021/08/17 09:15:20;;;;;;;17.73;8.20;;;;;;;;;;4995628;28;20053;-91
2021/08/17 09:17:57;;;;;;;12.65;7.30;;;;;;;;;;5031498;28;20084;-94
2021/08/17 09:20:27;;;;;;;14.90;7.57;;;;;;;;;;5015872;28;20056;-93
2021/08/17 09:22:56;;;;;;;19.65;7.68;;;;;;;;;;5024047;28;20049;-93
2021/08/17 09:25:32;;;;;;;13.15;8.02;;;;;;;;;;4990570;28;20121;-94
2021/08/17 09:28:21;;;;;;;15.18;7.45;;;;;;;;;;5023715;28;20162;-94
2021/08/17 09:30:47;;;;;;;14.90;7.55;;;;;;;;;;5043802;28;20044;-94
2021/08/17 09:33:14;;;;;;;11.35;6.55;;;;;;;;;;5024223;28;20054;-90
2021/08/17 09:35:40;;;;;;;14.75;7.65;;;;;;;;;;5016023;28;20086;-95
2021/08/17 09:38:08;;;;;;;15.80;7.50;;;;;;;;;;5018307;28;20576;-93
2021/08/17 09:40:35;;;;;;;12.60;5.97;;;;;;;;;;5011135;28;20072;-93
2021/08/17 09:43:17;;;;;;;14.30;6.70;;;;;;;;;;5004061;28;20139;-96
2021/08/17 09:45:44;;;;;;;12.40;7.13;;;;;;;;;;4977213;28;20482;-92
2021/08/17 09:48:14;;;;;;;12.93;6.95;;;;;;;;;;4967593;28;20581;-95
2021/08/17 09:50:42;;;;;;;13.50;6.63;;;;;;;;;;5000874;28;20053;-96
2021/08/17 09:53:11;;;;;;;13.57;6.43;;;;;;;;;;5007086;28;20053;-94
2021/08/17 09:55:40;;;;;;;11.75;7.40;;;;;;;;;;5028020;28;20136;-93
2021/08/17 09:58:25;;;;;;;15.73;7.05;;;;;;;;;;4998872;28;20564;-95
2021/08/17 10:01:10;;;;;;;12.85;5.90;;;;;;;;;;4982202;28;20470;-94
2021/08/17 10:03:36;;;;;;;11.55;6.18;;;;;;;;;;5004528;28;20073;-94
2021/08/17 10:06:04;;;;;;;12.55;6.47;;;;;;;;;;4991189;28;20389;-95
2021/08/17 10:08:32;;;;;;;11.18;5.68;;;;;;;;;;4986363;28;20054;-94
2021/08/17 10:10:58;;;;;;;11.05;5.53;;;;;;;;;;4951283;28;20046;-92
2021/08/17 10:13:27;;;;;;;10.05;6.38;;;;;;;;;;4966069;28;20093;-91
2021/08/17 10:15:54;;;;;;;14.45;6.97;;;;;;;;;;4969143;28;20052;-94
2021/08/17 10:18:23;;;;;;;12.38;6.85;;;;;;;;;;5011385;28;20061;-93
2021/08/17 10:20:56;;;;;;;10.88;5.13;;;;;;;;;;4967339;28;20496;-95
2021/08/17 10:23:35;;;;;;;10.57;6.47;;;;;;;;;;4931569;28;20056;-96
2021/08/17 10:26:06;;;;;;;12.35;6.70;;;;;;;;;;4907054;28;20054;-94
2021/08/17 10:28:40;;;;;;;16.38;7.13;;;;;;;;;;4910178;28;20174;-95
2021/08/17 10:31:10;;;;;;;14.43;6.90;;;;;;;;;;4898044;28;20067;-93
2021/08/17 10:33:42;;;;;;;13.82;7.15;;;;;;;;;;4904027;28;20058;-94
2021/08/17 10:36:09;;;;;;;14.73;6.90;;;;;;;;;;4922268;28;20069;-95
2021/08/17 10:38:36;;;;;;;14.45;6.60;;;;;;;;;;4966075;28;20077;-95
2021/08/17 10:41:08;;;;;;;10.77;6.50;;;;;;;;;;4941605;28;20051;-92
2021/08/17 10:43:36;;;;;;;15.13;5.95;;;;;;;;;;4948597;28;20137;-95
2021/08/17 10:46:08;;;;;;;11.70;5.97;;;;;;;;;;4934414;28;20623;-94
2021/08/17 10:48:52;;;;;;;11.60;5.93;;;;;;;;;;4930750;28;20046;-95
2021/08/17 10:51:21;;;;;;;10.68;5.90;;;;;;;;;;4915541;28;20059;-94
2021/08/17 10:53:52;;;;;;;9.63;5.43;;;;;;;;;;4901170;28;20082;-93
2021/08/17 10:56:31;;;;;;;8.10;4.43;;;;;;;;;;4916870;28;20177;-92
2021/08/17 10:58:58;;;;;;;7.63;4.85;;;;;;;;;;4981728;28;20728;-92
2021/08/17 11:01:47;;;;;;;9.27;5.60;;;;;;;;;;4992437;28;20339;-92
2021/08/17 11:04:15;;;;;;;8.57;4.93;;;;;;;;;;5011966;28;20057;-93
2021/08/17 11:06:49;;;;;;;13.88;5.63;;;;;;;;;;5017555;28;20132;-91
2021/08/17 11:09:19;;;;;;;11.02;5.35;;;;;;;;;;5059240;28;20393;-88
2021/08/17 11:11:54;;;;;;;8.30;5.05;;;;;;;;;;4984614;28;20049;-90
2021/08/17 11:14:24;;;;;;;10.93;5.55;;;;;;;;;;5016103;28;20061;-92
2021/08/17 11:16:56;;;;;;;10.13;5.68;;;;;;;;;;4933354;28;20050;-90
2021/08/17 11:19:24;;;;;;;11.40;5.57;;;;;;;;;;4931303;28;20051;-88
2021/08/17 11:21:52;;;;;;;9.98;5.15;;;;;;;;;;4934910;28;20050;-88
2021/08/17 11:24:20;;;;;;;12.48;6.00;;;;;;;;;;5009977;28;20142;-89
2021/08/17 11:27:15;;;;;;;9.48;5.22;;;;;;;;;;5016119;28;20064;-92
2021/08/17 11:29:42;;;;;;;8.50;4.63;;;;;;;;;;5018618;28;20057;-92
2021/08/17 11:32:10;;;;;;;8.20;4.53;;;;;;;;;;5016229;28;20118;-92
2021/08/17 11:34:37;;;;;;;8.73;5.25;;;;;;;;;;5009592;28;20049;-91
2021/08/17 11:37:03;;;;;;;7.13;4.30;;;;;;;;;;5020900;28;20072;-90
2021/08/17 11:39:37;;;;;;;6.70;4.20;;;;;;;;;;5013063;28;20069;-91
2021/08/17 11:42:22;;;;;;;9.52;4.97;;;;;;;;;;4927815;28;20050;-90
2021/08/17 11:44:50;;;;;;;8.10;3.50;;;;;;;;;;4876693;29;20059;-90
2021/08/17 11:47:18;;;;;;;9.52;4.30;;;;;;;;;;4904194;28;20184;-91
2021/08/17 11:49:45;;;;;;;9.82;4.70;;;;;;;;;;4918872;28;20090;-92
2021/08/17 11:52:16;;;;;;;8.55;4.00;;;;;;;;;;4884605;28;20056;-91
2021/08/17 11:54:52;;;;;;;9.48;5.38;;;;;;;;;;4870856;28;20102;-89
2021/08/17 11:57:20;;;;;;;9.25;4.85;;;;;;;;;;4932418;28;20458;-90
2021/08/17 11:59:48;;;;;;;7.90;5.05;;;;;;;;;;4982444;28;20148;-92
2021/08/17 12:02:28;;;;;;;10.43;4.22;;;;;;;;;;5020319;28;20063;-92
2021/08/17 12:05:01;;;;;;;8.30;4.10;;;;;;;;;;5009780;28;20742;-90
2021/08/17 12:07:28;;;;;;;8.52;4.50;;;;;;;;;;5013950;28;20549;-89
2021/08/17 12:09:55;;;;;;;7.90;4.68;;;;;;;;;;5010822;28;21925;-90
2021/08/17 12:12:41;;;;;;;6.90;4.00;;;;;;;;;;4979044;28;20057;-90
2021/08/17 12:15:08;;;;;;;7.68;4.60;;;;;;;;;;4921563;28;20226;-87
2021/08/17 12:17:37;;;;;;;8.60;4.22;;;;;;;;;;4917509;28;20121;-91
2021/08/17 12:20:07;;;;;;;10.10;4.35;;;;;;;;;;4900368;28;20048;-89
2021/08/17 12:22:34;;;;;;;6.60;4.00;;;;;;;;;;4924011;28;20042;-88
2021/08/17 12:25:00;;;;;;;10.85;4.82;;;;;;;;;;4905760;28;20082;-90
2021/08/17 12:27:27;;;;;;;9.73;4.20;;;;;;;;;;4830664;29;20059;-90
2021/08/17 12:30:08;;;;;;;8.20;4.70;;;;;;;;;;4869787;28;20300;-90
2021/08/17 12:32:34;;;;;;;8.23;4.15;;;;;;;;;;4882453;29;20055;-90
2021/08/17 12:35:24;;;;;;;8.48;4.28;;;;;;;;;;4915332;27;1321270;-88
2021/08/17 12:37:51;;;;;;;6.97;4.00;;;;;;;;;;4937515;28;20492;-89
2021/08/17 12:40:18;;;;;;;6.57;3.83;;;;;;;;;;4942417;28;20051;-89
2021/08/17 12:42:46;;;;;;;8.35;4.10;;;;;;;;;;4924532;28;20070;-88
2021/08/17 12:45:16;;;;;;;4.97;3.42;;;;;;;;;;4912208;28;20396;-88
2021/08/17 12:48:09;;;;;;;7.35;4.00;;;;;;;;;;4917064;28;20050;-88
2021/08/17 12:50:39;;;;;;;5.68;3.85;;;;;;;;;;4982709;28;20061;-88
2021/08/17 12:53:16;;;;;;;5.13;3.50;;;;;;;;;;4966506;28;20051;-89
2021/08/17 12:55:42;;;;;;;6.25;4.00;;;;;;;;;;4987598;28;20061;-89
2021/08/17 12:58:09;;;;;;;6.45;3.75;;;;;;;;;;4980499;28;20062;-91
2021/08/17 13:00:35;;;;;;;7.70;3.55;;;;;;;;;;4947868;28;20388;-90
2021/08/17 13:03:05;;;;;;;8.27;4.10;;;;;;;;;;4983132;28;20065;-91
2021/08/17 13:05:32;;;;;;;8.77;4.10;;;;;;;;;;4965737;28;20111;-89
2021/08/17 13:07:58;;;;;;;7.13;3.78;;;;;;;;;;4932929;28;20051;-89
2021/08/17 13:10:29;;;;;;;7.22;3.47;;;;;;;;;;4967499;28;20537;-89
2021/08/17 13:12:58;;;;;;;5.85;3.60;;;;;;;;;;5001165;28;20113;-91
2021/08/17 13:15:24;;;;;;;5.55;3.22;;;;;;;;;;5004272;28;20065;-90
2021/08/17 13:17:51;;;;;;;6.30;3.90;;;;;;;;;;5002207;28;20045;-90
2021/08/17 13:20:19;;;;;;;5.88;3.33;;;;;;;;;;5005668;28;20057;-91
2021/08/17 13:22:45;;;;;;;6.22;3.03;;;;;;;;;;5002588;28;20494;-88
2021/08/17 13:25:12;;;;;;;6.05;2.95;;;;;;;;;;5005787;28;20042;-91
2021/08/17 13:27:39;;;;;;;5.63;3.08;;;;;;;;;;5005484;28;20046;-89
2021/08/17 13:30:06;;;;;;;6.28;3.05;;;;;;;;;;5003516;28;20045;-90
2021/08/17 13:32:32;;;;;;;5.20;3.47;;;;;;;;;;5004839;28;20123;-91
2021/08/17 13:34:59;;;;;;;5.80;3.63;;;;;;;;;;4999029;28;20076;-89
2021/08/17 13:37:26;;;;;;;5.10;3.42;;;;;;;;;;5005318;28;20129;-90
2021/08/17 13:39:52;;;;;;;6.80;4.30;;;;;;;;;;5003540;28;20502;-91
2021/08/17 13:42:19;;;;;;;6.65;3.72;;;;;;;;;;5004049;28;20046;-90
2021/08/17 13:44:46;;;;;;;6.15;3.70;;;;;;;;;;5000365;28;20050;-87
2021/08/17 13:47:13;;;;;;;5.20;3.05;;;;;;;;;;4990835;28;20416;-90
2021/08/17 13:49:39;;;;;;;7.90;3.80;;;;;;;;;;4992297;28;20054;-91
2021/08/17 13:52:06;;;;;;;5.05;3.60;;;;;;;;;;4991062;28;20319;-88
2021/08/17 13:54:32;;;;;;;7.13;3.75;;;;;;;;;;4991890;28;20137;-90
2021/08/17 13:56:58;;;;;;;4.90;2.90;;;;;;;;;;4992851;28;20042;-91
2021/08/17 13:59:24;;;;;;;5.72;3.35;;;;;;;;;;4990775;28;20074;-89
2021/08/17 14:01:51;;;;;;;5.38;3.60;;;;;;;;;;4985399;28;20046;-90
2021/08/17 14:04:17;;;;;;;5.82;3.45;;;;;;;;;;4990031;28;20053;-90
2021/08/17 14:06:45;;;;;;;5.32;3.63;;;;;;;;;;4991059;28;20054;-90
2021/08/17 14:09:12;;;;;;;6.18;3.90;;;;;;;;;;4990070;28;20069;-89
2021/08/17 14:11:39;;;;;;;4.88;3.60;;;;;;;;;;4989857;28;20121;-90
2021/08/17 14:14:05;;;;;;;6.53;3.50;;;;;;;;;;4980320;28;20074;-89
2021/08/17 14:16:32;;;;;;;6.38;3.67;;;;;;;;;;4987723;28;20105;-88
2021/08/17 14:18:58;;;;;;;7.45;3.80;;;;;;;;;;4983912;28;20050;-90
2021/08/17 14:21:25;;;;;;;8.13;3.95;;;;;;;;;;4972217;28;20492;-89
2021/08/17 14:23:52;;;;;;;7.43;4.30;;;;;;;;;;4982253;28;20073;-89
2021/08/17 14:26:18;;;;;;;7.45;3.92;;;;;;;;;;4984688;28;20521;-89
2021/08/17 14:28:44;;;;;;;5.05;3.70;;;;;;;;;;4970278;28;20130;-88
2021/08/17 14:31:11;;;;;;;6.47;4.10;;;;;;;;;;4989855;28;20128;-91
2021/08/17 14:33:37;;;;;;;7.45;3.90;;;;;;;;;;4989730;28;20088;-90
2021/08/17 14:36:04;;;;;;;6.43;3.60;;;;;;;;;;4989503;28;20054;-91
2021/08/17 14:38:30;;;;;;;4.50;3.13;;;;;;;;;;4991474;28;20050;-93
2021/08/17 14:40:57;;;;;;;5.68;3.53;;;;;;;;;;4991021;28;20060;-95
2021/08/17 14:43:23;;;;;;;4.78;3.45;;;;;;;;;;4991882;28;20093;-88
2021/08/17 14:45:49;;;;;;;6.40;3.40;;;;;;;;;;4991894;28;20086;-94
2021/08/17 14:48:16;;;;;;;6.60;4.22;;;;;;;;;;4968900;28;20123;-93
2021/08/17 14:50:44;;;;;;;7.10;4.10;;;;;;;;;;4991734;28;20422;-95